createdAt,value
2023-05-07T00:03:04.208Z,14.02
2023-05-07T00:07:06.705Z,13.90
2023-05-07T00:11:08.752Z,12.80
2023-05-07T00:15:11.436Z,13.77
2023-05-07T00:19:13.693Z,20.83
2023-05-07T00:23:15.618Z,13.52
2023-05-07T00:27:17.569Z,10.07
2023-05-07T00:31:19.681Z,14.07
2023-05-07T00:35:21.883Z,15.20
2023-05-07T00:39:23.957Z,17.88
2023-05-07T00:43:26.016Z,13.98
2023-05-07T00:47:28.071Z,13.80
2023-05-07T00:51:30.694Z,14.30
2023-05-07T00:55:33.940Z,19.10
2023-05-07T00:59:36.597Z,15.15
2023-05-07T01:03:38.740Z,11.07
2023-05-07T01:07:43.236Z,14.40
2023-05-07T01:11:45.446Z,17.85
2023-05-07T01:15:47.577Z,20.67
2023-05-07T01:19:50.081Z,12.27
2023-05-07T01:23:55.796Z,15.35
2023-05-07T01:28:00.384Z,13.27
2023-05-07T01:32:06.754Z,15.07
2023-05-07T01:36:09.827Z,13.23
2023-05-07T01:40:12.557Z,12.93
2023-05-07T01:44:16.396Z,13.00
2023-05-07T01:48:19.410Z,11.70
2023-05-07T01:52:21.409Z,11.50
2023-05-07T01:56:23.644Z,12.00
2023-05-07T02:00:25.740Z,11.52
2023-05-07T02:04:27.881Z,15.55
2023-05-07T02:08:30.993Z,16.80
2023-05-07T02:12:33.824Z,10.93
2023-05-07T02:16:37.114Z,13.20
2023-05-07T02:20:39.332Z,11.30
2023-05-07T02:24:41.596Z,11.80
2023-05-07T02:28:43.632Z,8.68
2023-05-07T02:32:46.281Z,11.30
2023-05-07T02:36:48.539Z,13.32
2023-05-07T02:40:54.777Z,11.95
2023-05-07T02:44:56.791Z,14.02
2023-05-07T02:48:58.907Z,17.92
2023-05-07T02:53:01.162Z,12.00
2023-05-07T02:57:04.191Z,14.88
2023-05-07T03:01:07.078Z,16.55
2023-05-07T03:05:25.390Z,14.57
2023-05-07T03:09:27.640Z,8.18
2023-05-07T03:13:29.634Z,9.48
2023-05-07T03:17:32.043Z,12.80
2023-05-07T03:21:35.279Z,10.85
2023-05-07T03:25:36.876Z,13.45
2023-05-07T03:29:38.935Z,8.85
2023-05-07T03:33:52.361Z,9.13
2023-05-07T03:37:54.436Z,10.48
2023-05-07T03:41:58.145Z,9.90
2023-05-07T03:46:00.327Z,10.90
2023-05-07T03:50:04.470Z,9.02
2023-05-07T03:54:06.599Z,9.93
2023-05-07T03:58:09.713Z,10.20
2023-05-07T04:02:12.696Z,12.75
2023-05-07T04:06:17.662Z,7.93
2023-05-07T04:10:22.030Z,10.48
2023-05-07T04:14:27.277Z,8.88
2023-05-07T04:18:29.803Z,8.00
2023-05-07T04:22:31.893Z,12.57
2023-05-07T04:26:34.902Z,7.85
2023-05-07T04:30:37.094Z,10.55
2023-05-07T04:34:41.446Z,8.15
2023-05-07T04:38:44.090Z,7.60
2023-05-07T04:42:46.372Z,11.50
2023-05-07T04:46:49.498Z,10.75
2023-05-07T04:50:51.987Z,9.73
2023-05-07T04:54:54.946Z,9.70
2023-05-07T04:58:57.265Z,6.95
2023-05-07T05:03:00.249Z,8.02
2023-05-07T05:07:04.544Z,9.98
2023-05-07T05:11:07.154Z,8.20
2023-05-07T05:15:13.536Z,7.03
2023-05-07T05:19:16.034Z,6.40
2023-05-07T05:23:20.834Z,6.78
2023-05-07T05:27:23.538Z,6.63
2023-05-07T05:31:26.562Z,5.93
2023-05-07T05:35:28.699Z,6.05
2023-05-07T05:39:31.795Z,5.80
2023-05-07T05:43:34.661Z,6.95
2023-05-07T05:47:36.796Z,6.85
2023-05-07T05:51:38.948Z,6.82
2023-05-07T05:55:42.242Z,8.68
2023-05-07T05:59:44.931Z,5.38
2023-05-07T06:03:47.003Z,7.90
2023-05-07T06:07:50.880Z,4.70
2023-05-07T06:11:53.438Z,4.40
2023-05-07T06:15:55.780Z,6.70
2023-05-07T06:19:57.860Z,4.00
2023-05-07T06:24:00.077Z,4.80
2023-05-07T06:28:02.252Z,5.43
2023-05-07T06:32:13.290Z,6.97
2023-05-07T06:36:17.464Z,9.23
2023-05-07T06:40:20.816Z,6.00
2023-05-07T06:44:24.959Z,5.55
2023-05-07T06:48:35.886Z,4.78
2023-05-07T06:52:40.940Z,5.70
2023-05-07T06:56:43.149Z,5.03
2023-05-07T07:00:45.643Z,6.13
2023-05-07T07:04:48.446Z,6.70
2023-05-07T07:08:51.079Z,5.15
2023-05-07T07:12:54.027Z,4.15
2023-05-07T07:16:57.163Z,8.15
2023-05-07T07:21:00.345Z,5.97
2023-05-07T07:25:02.764Z,6.95
2023-05-07T07:29:05.567Z,4.97
2023-05-07T07:33:07.740Z,5.93
2023-05-07T07:37:12.436Z,7.13
2023-05-07T07:41:14.509Z,6.07
2023-05-07T07:45:16.648Z,4.05
2023-05-07T07:49:22.300Z,7.82
2023-05-07T07:53:24.495Z,9.25
2023-05-07T07:57:26.863Z,4.07
2023-05-07T08:01:31.636Z,3.97
2023-05-07T08:05:34.489Z,7.80
2023-05-07T08:09:36.775Z,5.50
2023-05-07T08:13:40.054Z,6.80
2023-05-07T08:17:42.453Z,7.95
2023-05-07T08:21:45.401Z,5.45
2023-05-07T08:25:47.711Z,9.55
2023-05-07T08:29:50.890Z,5.35
2023-05-07T08:33:54.508Z,6.55
2023-05-07T08:37:56.855Z,5.90
2023-05-07T08:42:01.969Z,4.10
2023-05-07T08:46:07.492Z,3.78
2023-05-07T08:50:14.600Z,5.72
2023-05-07T08:54:18.810Z,3.60
2023-05-07T08:58:21.418Z,6.78
2023-05-07T09:02:23.851Z,3.45
2023-05-07T09:06:27.632Z,5.18
2023-05-07T09:10:32.534Z,7.10
2023-05-07T09:14:34.756Z,3.60
2023-05-07T09:18:42.504Z,7.00
2023-05-07T09:22:46.393Z,5.77
2023-05-07T09:26:51.413Z,11.57
2023-05-07T09:30:53.876Z,8.40
2023-05-07T09:34:56.540Z,3.47
2023-05-07T09:39:01.376Z,5.20
2023-05-07T09:43:15.118Z,9.80
2023-05-07T09:47:25.594Z,9.50
2023-05-07T09:51:32.233Z,5.32
2023-05-07T09:55:36.223Z,6.95
2023-05-07T09:59:39.754Z,7.93
2023-05-07T10:03:47.024Z,6.32
2023-05-07T10:07:51.337Z,4.63
2023-05-07T10:11:55.351Z,8.70
2023-05-07T10:15:58.209Z,3.33
2023-05-07T10:20:05.051Z,6.28
2023-05-07T10:24:15.640Z,4.30
2023-05-07T10:28:20.825Z,4.47
2023-05-07T10:32:43.547Z,8.70
2023-05-07T10:36:52.830Z,3.50
2023-05-07T10:40:55.806Z,6.70
2023-05-07T10:44:58.271Z,4.22
2023-05-07T10:49:07.033Z,5.20
2023-05-07T10:53:27.672Z,4.75
2023-05-07T10:57:38.777Z,5.10
2023-05-07T11:01:52.772Z,3.78
2023-05-07T11:06:16.944Z,4.30
2023-05-07T11:10:59.447Z,2.50
2023-05-07T11:15:16.624Z,6.03
2023-05-07T11:19:38.918Z,3.50
2023-05-07T11:23:41.584Z,3.50
2023-05-07T11:28:06.318Z,3.38
2023-05-07T11:32:09.492Z,3.22
2023-05-07T11:36:21.839Z,2.95
2023-05-07T11:40:26.388Z,3.40
2023-05-07T11:44:43.257Z,6.03
2023-05-07T11:48:45.320Z,4.78
2023-05-07T11:52:53.811Z,4.25
2023-05-07T11:56:57.099Z,6.40
2023-05-07T12:00:59.242Z,10.77
2023-05-07T12:05:01.610Z,5.07
2023-05-07T12:09:03.832Z,3.83
2023-05-07T12:13:25.105Z,4.68
2023-05-07T12:17:27.370Z,8.52
2023-05-07T12:21:30.540Z,3.05
2023-05-07T12:25:35.592Z,5.07
2023-05-07T12:29:40.083Z,4.15
2023-05-07T12:33:42.275Z,5.50
2023-05-07T12:37:44.544Z,3.13
2023-05-07T12:41:59.442Z,5.28
2023-05-07T12:46:05.160Z,7.43
2023-05-07T12:50:08.081Z,5.65
2023-05-07T12:54:10.204Z,1.92
2023-05-07T12:58:20.393Z,4.43
2023-05-07T13:02:33.868Z,4.80
2023-05-07T13:06:36.096Z,4.70
2023-05-07T13:10:38.010Z,3.90
2023-05-07T13:14:40.352Z,6.20
2023-05-07T13:18:44.720Z,8.23
2023-05-07T13:22:47.100Z,7.00
2023-05-07T13:26:49.242Z,2.05
2023-05-07T13:30:55.823Z,3.30
2023-05-07T13:34:58.257Z,1.58
2023-05-07T13:39:01.525Z,3.50
2023-05-07T13:43:03.520Z,3.38
2023-05-07T13:47:05.652Z,3.63
2023-05-07T13:51:07.666Z,4.55
2023-05-07T13:55:13.945Z,2.80
2023-05-07T13:59:16.292Z,6.10
2023-05-07T14:03:20.708Z,3.83
2023-05-07T14:07:22.981Z,2.40
2023-05-07T14:11:25.042Z,6.25
2023-05-07T14:15:27.106Z,2.38
2023-05-07T14:19:29.158Z,2.88
2023-05-07T14:23:31.247Z,5.35
2023-05-07T14:27:33.685Z,3.65
2023-05-07T14:31:35.813Z,4.07
2023-05-07T14:35:37.974Z,3.35
2023-05-07T14:39:40.892Z,1.95
2023-05-07T14:43:42.973Z,6.50
2023-05-07T14:47:45.054Z,3.17
2023-05-07T14:51:48.081Z,2.15
2023-05-07T14:55:50.342Z,3.38
2023-05-07T14:59:52.607Z,2.88
2023-05-07T15:03:55.615Z,4.03
2023-05-07T15:07:57.868Z,3.60
2023-05-07T15:11:59.851Z,2.88
2023-05-07T15:16:01.995Z,18.92
2023-05-07T15:20:05.792Z,2.28
2023-05-07T15:24:10.393Z,5.30
2023-05-07T15:28:12.666Z,6.40
2023-05-07T15:32:14.869Z,6.25
2023-05-07T15:36:16.980Z,4.30
2023-05-07T15:40:19.146Z,2.42
2023-05-07T15:44:21.231Z,3.45
2023-05-07T15:48:23.297Z,3.15
2023-05-07T15:52:25.491Z,5.80
2023-05-07T15:56:27.635Z,5.60
2023-05-07T16:00:29.604Z,2.10
2023-05-07T16:04:32.175Z,3.80
2023-05-07T16:08:34.351Z,4.28
2023-05-07T16:12:36.794Z,4.72
2023-05-07T16:16:41.092Z,4.38
2023-05-07T16:20:43.870Z,3.15
2023-05-07T16:24:46.222Z,2.83
2023-05-07T16:28:48.555Z,3.78
2023-05-07T16:32:50.745Z,3.55
2023-05-07T16:36:52.948Z,3.92
2023-05-07T16:40:55.254Z,3.88
2023-05-07T16:44:57.335Z,5.78
2023-05-07T16:48:59.413Z,5.55
2023-05-07T16:53:01.511Z,6.05
2023-05-07T16:57:03.769Z,4.32
2023-05-07T17:01:05.952Z,4.07
2023-05-07T17:05:08.518Z,4.28
2023-05-07T17:09:10.736Z,8.10
2023-05-07T17:13:13.270Z,4.75
2023-05-07T17:17:15.676Z,6.57
2023-05-07T17:21:17.790Z,5.93
2023-05-07T17:25:20.224Z,6.38
2023-05-07T17:29:22.292Z,6.47
2023-05-07T17:33:24.433Z,7.03
2023-05-07T17:37:27.188Z,6.03
2023-05-07T17:41:29.223Z,6.63
2023-05-07T17:45:32.541Z,5.47
2023-05-07T17:49:35.705Z,4.90
2023-05-07T17:53:37.845Z,5.45
2023-05-07T17:57:39.804Z,7.25
2023-05-07T18:01:42.180Z,5.38
2023-05-07T18:05:44.632Z,5.18
2023-05-07T18:09:46.725Z,8.57
2023-05-07T18:13:48.747Z,11.45
2023-05-07T18:17:50.772Z,8.65
2023-05-07T18:21:55.213Z,9.55
2023-05-07T18:25:57.189Z,9.07
2023-05-07T18:29:59.254Z,7.53
2023-05-07T18:34:01.292Z,13.45
2023-05-07T18:38:03.453Z,9.80
2023-05-07T18:42:05.527Z,11.27
2023-05-07T18:46:07.882Z,10.18
2023-05-07T18:50:10.527Z,7.88
2023-05-07T18:54:12.765Z,12.25
2023-05-07T18:58:16.542Z,9.52
2023-05-07T19:02:19.230Z,8.07
2023-05-07T19:06:22.158Z,16.30
2023-05-07T19:10:24.435Z,21.90
2023-05-07T19:14:26.969Z,13.50
2023-05-07T19:18:30.537Z,15.73
2023-05-07T19:22:32.704Z,14.52
2023-05-07T19:26:34.800Z,18.27
2023-05-07T19:30:40.807Z,17.08
2023-05-07T19:34:42.940Z,15.02
2023-05-07T19:38:45.825Z,13.32
2023-05-07T19:42:47.932Z,14.23
2023-05-07T19:46:50.144Z,15.38
2023-05-07T19:50:52.211Z,14.85
2023-05-07T19:54:56.231Z,15.07
2023-05-07T19:58:58.355Z,15.40
2023-05-07T20:03:00.501Z,17.02
2023-05-07T20:07:02.685Z,17.92
2023-05-07T20:11:05.200Z,22.45
2023-05-07T20:15:07.830Z,26.27
2023-05-07T20:19:09.850Z,22.92
2023-05-07T20:23:12.095Z,25.48
2023-05-07T20:27:14.074Z,26.17
2023-05-07T20:31:16.689Z,26.98
2023-05-07T20:35:18.897Z,32.47
2023-05-07T20:39:20.948Z,38.92
2023-05-07T20:43:22.961Z,43.08
2023-05-07T20:47:25.112Z,39.88
2023-05-07T20:51:27.293Z,53.40
2023-05-07T20:55:29.452Z,47.55
2023-05-07T20:59:34.772Z,52.28
2023-05-07T21:03:36.862Z,53.67
2023-05-07T21:07:38.857Z,45.72
2023-05-07T21:11:40.970Z,43.80
2023-05-07T21:15:43.050Z,50.28
2023-05-07T21:19:45.160Z,52.55
2023-05-07T21:23:47.239Z,56.47
2023-05-07T21:27:49.211Z,47.00
2023-05-07T21:31:51.233Z,49.65
2023-05-07T21:35:54.140Z,43.75
2023-05-07T21:39:56.285Z,46.63
2023-05-07T21:43:58.268Z,41.60
2023-05-07T21:48:00.409Z,46.72
2023-05-07T21:52:03.036Z,45.38
2023-05-07T21:56:05.678Z,37.50
2023-05-07T22:00:08.435Z,42.08
2023-05-07T22:04:11.144Z,43.63
2023-05-07T22:08:13.198Z,43.53
2023-05-07T22:12:15.252Z,42.65
2023-05-07T22:16:17.228Z,35.78
2023-05-07T22:20:19.225Z,38.65
2023-05-07T22:24:21.428Z,53.60
2023-05-07T22:28:23.477Z,45.00
2023-05-07T22:32:25.671Z,61.60
2023-05-07T22:36:27.828Z,52.90
2023-05-07T22:40:29.913Z,54.22
2023-05-07T22:44:31.938Z,62.30
2023-05-07T22:48:34.043Z,54.15
2023-05-07T22:52:36.038Z,65.05
2023-05-07T22:56:38.094Z,73.40
2023-05-07T23:00:40.220Z,58.72
2023-05-07T23:04:42.201Z,60.40
2023-05-07T23:08:44.384Z,61.80
2023-05-07T23:12:49.360Z,53.63
2023-05-07T23:16:51.454Z,64.10
2023-05-07T23:20:53.580Z,48.13
2023-05-07T23:24:55.672Z,35.33
2023-05-07T23:28:57.748Z,40.78
2023-05-07T23:32:59.810Z,40.05
2023-05-07T23:37:01.843Z,35.60
2023-05-07T23:41:03.865Z,33.08
2023-05-07T23:45:06.302Z,32.15
2023-05-07T23:49:08.264Z,34.22
2023-05-07T23:53:10.410Z,34.25
2023-05-07T23:57:12.452Z,31.92
